sensor_id;sensor_type;location;lat;lon;timestamp;temperature;humidity
20827;DHT22;10574;52.508;13.236;2022-08-01T00:00:10;21.10;99.90
20827;DHT22;10574;52.508;13.236;2022-08-01T00:02:38;21.00;99.90
20827;DHT22;10574;52.508;13.236;2022-08-01T00:05:08;21.00;99.90
20827;DHT22;10574;52.508;13.236;2022-08-01T00:07:37;20.90;99.90
20827;DHT22;10574;52.508;13.236;2022-08-01T00:10:07;20.90;99.90
20827;DHT22;10574;52.508;13.236;2022-08-01T00:12:35;20.90;99.90
20827;DHT22;10574;52.508;13.236;2022-08-01T00:15:05;20.90;99.90
20827;DHT22;10574;52.508;13.236;2022-08-01T00:17:33;20.80;99.90
20827;DHT22;10574;52.508;13.236;2022-08-01T00:20:01;20.80;99.90
20827;DHT22;10574;52.508;13.236;2022-08-01T00:22:31;20.80;99.90
20827;DHT22;10574;52.508;13.236;2022-08-01T00:25:00;20.80;99.90
20827;DHT22;10574;52.508;13.236;2022-08-01T00:27:28;20.70;99.90
20827;DHT22;10574;52.508;13.236;2022-08-01T00:29:55;20.60;99.90
20827;DHT22;10574;52.508;13.236;2022-08-01T00:32:23;20.60;99.90
20827;DHT22;10574;52.508;13.236;2022-08-01T00:34:50;20.50;99.90
20827;DHT22;10574;52.508;13.236;2022-08-01T00:37:18;20.50;99.90
20827;DHT22;10574;52.508;13.236;2022-08-01T00:39:46;20.60;99.90
20827;DHT22;10574;52.508;13.236;2022-08-01T00:42:14;20.60;99.90
20827;DHT22;10574;52.508;13.236;2022-08-01T00:44:41;20.50;99.90
20827;DHT22;10574;52.508;13.236;2022-08-01T00:47:09;20.50;99.90
20827;DHT22;10574;52.508;13.236;2022-08-01T00:49:37;20.40;99.90
20827;DHT22;10574;52.508;13.236;2022-08-01T00:52:05;20.40;99.90
20827;DHT22;10574;52.508;13.236;2022-08-01T00:54:33;20.40;99.90
20827;DHT22;10574;52.508;13.236;2022-08-01T00:57:02;20.40;99.90
20827;DHT22;10574;52.508;13.236;2022-08-01T00:59:30;20.40;99.90
20827;DHT22;10574;52.508;13.236;2022-08-01T01:01:58;20.40;99.90
20827;DHT22;10574;52.508;13.236;2022-08-01T01:04:26;20.30;99.90
20827;DHT22;10574;52.508;13.236;2022-08-01T01:07:19;20.30;99.90
20827;DHT22;10574;52.508;13.236;2022-08-01T01:15:44;20.30;99.90
20827;DHT22;10574;52.508;13.236;2022-08-01T01:21:04;20.30;99.90
20827;DHT22;10574;52.508;13.236;2022-08-01T01:26:43;20.30;99.90
20827;DHT22;10574;52.508;13.236;2022-08-01T01:31:59;20.20;99.90
20827;DHT22;10574;52.508;13.236;2022-08-01T01:34:28;20.10;99.90
20827;DHT22;10574;52.508;13.236;2022-08-01T01:36:59;20.10;99.90
20827;DHT22;10574;52.508;13.236;2022-08-01T01:39:30;20.10;99.90
20827;DHT22;10574;52.508;13.236;2022-08-01T01:41:58;20.00;99.90
20827;DHT22;10574;52.508;13.236;2022-08-01T01:44:27;20.00;99.90
20827;DHT22;10574;52.508;13.236;2022-08-01T01:46:56;20.00;99.90
20827;DHT22;10574;52.508;13.236;2022-08-01T01:49:26;20.00;99.90
20827;DHT22;10574;52.508;13.236;2022-08-01T01:51:56;19.90;99.90
20827;DHT22;10574;52.508;13.236;2022-08-01T01:54:30;19.90;99.90
20827;DHT22;10574;52.508;13.236;2022-08-01T01:56:59;19.90;99.90
20827;DHT22;10574;52.508;13.236;2022-08-01T01:59:30;19.90;99.90
20827;DHT22;10574;52.508;13.236;2022-08-01T02:02:02;19.80;99.90
20827;DHT22;10574;52.508;13.236;2022-08-01T02:04:30;19.70;99.90
20827;DHT22;10574;52.508;13.236;2022-08-01T02:07:00;19.60;99.90
20827;DHT22;10574;52.508;13.236;2022-08-01T02:09:29;19.50;99.90
20827;DHT22;10574;52.508;13.236;2022-08-01T02:11:58;19.40;99.90
20827;DHT22;10574;52.508;13.236;2022-08-01T02:14:28;19.40;99.90
20827;DHT22;10574;52.508;13.236;2022-08-01T02:16:57;19.40;99.90
20827;DHT22;10574;52.508;13.236;2022-08-01T02:19:26;19.40;99.90
20827;DHT22;10574;52.508;13.236;2022-08-01T02:22:16;19.40;99.90
20827;DHT22;10574;52.508;13.236;2022-08-01T02:27:30;19.20;99.90
20827;DHT22;10574;52.508;13.236;2022-08-01T02:29:58;19.20;99.90
20827;DHT22;10574;52.508;13.236;2022-08-01T02:32:38;19.30;99.90
20827;DHT22;10574;52.508;13.236;2022-08-01T02:35:01;19.30;99.90
20827;DHT22;10574;52.508;13.236;2022-08-01T02:37:32;19.30;99.90
20827;DHT22;10574;52.508;13.236;2022-08-01T02:40:00;19.30;99.90
20827;DHT22;10574;52.508;13.236;2022-08-01T02:42:30;19.40;99.90
20827;DHT22;10574;52.508;13.236;2022-08-01T02:44:59;19.40;99.90
20827;DHT22;10574;52.508;13.236;2022-08-01T02:47:28;19.50;99.90
20827;DHT22;10574;52.508;13.236;2022-08-01T02:49:57;19.50;99.90
20827;DHT22;10574;52.508;13.236;2022-08-01T02:52:46;19.40;99.90
20827;DHT22;10574;52.508;13.236;2022-08-01T02:55:14;19.40;99.90
20827;DHT22;10574;52.508;13.236;2022-08-01T02:57:44;19.40;99.90
20827;DHT22;10574;52.508;13.236;2022-08-01T03:00:15;19.40;99.90
20827;DHT22;10574;52.508;13.236;2022-08-01T03:02:44;19.40;99.90
20827;DHT22;10574;52.508;13.236;2022-08-01T03:05:15;19.40;99.90
20827;DHT22;10574;52.508;13.236;2022-08-01T03:07:45;19.30;99.90
20827;DHT22;10574;52.508;13.236;2022-08-01T03:10:14;19.30;99.90
20827;DHT22;10574;52.508;13.236;2022-08-01T03:12:44;19.30;99.90
20827;DHT22;10574;52.508;13.236;2022-08-01T03:15:13;19.40;99.90
20827;DHT22;10574;52.508;13.236;2022-08-01T03:17:44;19.40;99.90
20827;DHT22;10574;52.508;13.236;2022-08-01T03:20:15;19.40;99.90
20827;DHT22;10574;52.508;13.236;2022-08-01T03:22:45;19.40;99.90
20827;DHT22;10574;52.508;13.236;2022-08-01T03:25:15;19.30;99.90
20827;DHT22;10574;52.508;13.236;2022-08-01T03:27:47;19.30;99.90
20827;DHT22;10574;52.508;13.236;2022-08-01T03:30:15;19.30;99.90
20827;DHT22;10574;52.508;13.236;2022-08-01T03:32:43;19.30;99.90
20827;DHT22;10574;52.508;13.236;2022-08-01T03:35:10;19.30;99.90
20827;DHT22;10574;52.508;13.236;2022-08-01T03:37:50;19.30;99.90
20827;DHT22;10574;52.508;13.236;2022-08-01T03:40:20;19.20;99.90
20827;DHT22;10574;52.508;13.236;2022-08-01T03:42:52;19.20;99.90
20827;DHT22;10574;52.508;13.236;2022-08-01T03:45:21;19.20;99.90
20827;DHT22;10574;52.508;13.236;2022-08-01T03:47:58;19.30;99.90
20827;DHT22;10574;52.508;13.236;2022-08-01T03:50:21;19.20;99.90
20827;DHT22;10574;52.508;13.236;2022-08-01T03:52:50;19.20;99.90
20827;DHT22;10574;52.508;13.236;2022-08-01T03:55:19;19.30;99.90
20827;DHT22;10574;52.508;13.236;2022-08-01T03:57:48;19.40;99.90
20827;DHT22;10574;52.508;13.236;2022-08-01T04:00:18;19.40;99.90
20827;DHT22;10574;52.508;13.236;2022-08-01T04:02:48;19.40;99.90
20827;DHT22;10574;52.508;13.236;2022-08-01T04:05:17;19.40;99.90
20827;DHT22;10574;52.508;13.236;2022-08-01T04:07:49;19.30;99.90
20827;DHT22;10574;52.508;13.236;2022-08-01T04:10:19;19.20;99.90
20827;DHT22;10574;52.508;13.236;2022-08-01T04:12:46;19.20;99.90
20827;DHT22;10574;52.508;13.236;2022-08-01T04:15:14;19.20;99.90
20827;DHT22;10574;52.508;13.236;2022-08-01T04:17:42;19.20;99.90
20827;DHT22;10574;52.508;13.236;2022-08-01T04:20:11;19.20;99.90
20827;DHT22;10574;52.508;13.236;2022-08-01T04:22:39;19.20;99.90
20827;DHT22;10574;52.508;13.236;2022-08-01T04:25:16;19.20;99.90
20827;DHT22;10574;52.508;13.236;2022-08-01T04:27:45;19.20;99.90
20827;DHT22;10574;52.508;13.236;2022-08-01T04:30:17;19.20;99.90
20827;DHT22;10574;52.508;13.236;2022-08-01T04:32:45;19.10;99.90
20827;DHT22;10574;52.508;13.236;2022-08-01T04:35:15;19.20;99.90
20827;DHT22;10574;52.508;13.236;2022-08-01T04:37:46;19.20;99.90
20827;DHT22;10574;52.508;13.236;2022-08-01T04:40:15;19.20;99.90
20827;DHT22;10574;52.508;13.236;2022-08-01T04:42:43;19.20;99.90
20827;DHT22;10574;52.508;13.236;2022-08-01T04:45:12;19.20;99.90
20827;DHT22;10574;52.508;13.236;2022-08-01T04:47:41;19.20;99.90
20827;DHT22;10574;52.508;13.236;2022-08-01T04:50:11;19.20;99.90
20827;DHT22;10574;52.508;13.236;2022-08-01T04:52:39;19.20;99.90
20827;DHT22;10574;52.508;13.236;2022-08-01T04:55:08;19.30;99.90
20827;DHT22;10574;52.508;13.236;2022-08-01T04:57:39;19.30;99.90
20827;DHT22;10574;52.508;13.236;2022-08-01T05:00:07;19.40;99.90
20827;DHT22;10574;52.508;13.236;2022-08-01T05:02:37;19.30;99.90
20827;DHT22;10574;52.508;13.236;2022-08-01T05:05:05;19.30;99.90
20827;DHT22;10574;52.508;13.236;2022-08-01T05:07:33;19.30;99.90
20827;DHT22;10574;52.508;13.236;2022-08-01T05:10:04;19.40;99.90
20827;DHT22;10574;52.508;13.236;2022-08-01T05:12:32;19.40;99.90
20827;DHT22;10574;52.508;13.236;2022-08-01T05:15:00;19.50;99.90
20827;DHT22;10574;52.508;13.236;2022-08-01T05:17:28;19.50;99.90
20827;DHT22;10574;52.508;13.236;2022-08-01T05:19:56;19.50;99.90
20827;DHT22;10574;52.508;13.236;2022-08-01T05:22:23;19.60;99.90
20827;DHT22;10574;52.508;13.236;2022-08-01T05:24:52;19.60;99.90
20827;DHT22;10574;52.508;13.236;2022-08-01T05:27:19;19.60;99.90
20827;DHT22;10574;52.508;13.236;2022-08-01T05:29:47;19.60;99.90
20827;DHT22;10574;52.508;13.236;2022-08-01T05:32:15;19.60;99.90
20827;DHT22;10574;52.508;13.236;2022-08-01T05:34:42;19.70;99.90
20827;DHT22;10574;52.508;13.236;2022-08-01T05:37:10;19.70;99.90
20827;DHT22;10574;52.508;13.236;2022-08-01T05:39:38;19.70;99.90
20827;DHT22;10574;52.508;13.236;2022-08-01T05:42:05;19.80;99.90
20827;DHT22;10574;52.508;13.236;2022-08-01T05:44:33;19.80;99.90
20827;DHT22;10574;52.508;13.236;2022-08-01T05:47:01;19.80;99.90
20827;DHT22;10574;52.508;13.236;2022-08-01T05:49:29;19.80;99.90
20827;DHT22;10574;52.508;13.236;2022-08-01T05:51:57;19.80;99.90
20827;DHT22;10574;52.508;13.236;2022-08-01T05:54:24;19.80;99.90
20827;DHT22;10574;52.508;13.236;2022-08-01T05:56:53;19.70;99.90
20827;DHT22;10574;52.508;13.236;2022-08-01T05:59:22;19.60;99.90
20827;DHT22;10574;52.508;13.236;2022-08-01T06:01:50;19.60;99.90
20827;DHT22;10574;52.508;13.236;2022-08-01T06:04:17;19.70;99.90
20827;DHT22;10574;52.508;13.236;2022-08-01T06:06:45;19.60;99.90
20827;DHT22;10574;52.508;13.236;2022-08-01T06:09:12;19.60;99.90
20827;DHT22;10574;52.508;13.236;2022-08-01T06:11:40;19.60;99.90
20827;DHT22;10574;52.508;13.236;2022-08-01T06:14:08;19.60;99.90
20827;DHT22;10574;52.508;13.236;2022-08-01T06:16:36;19.70;99.90
20827;DHT22;10574;52.508;13.236;2022-08-01T06:19:03;19.60;99.90
20827;DHT22;10574;52.508;13.236;2022-08-01T06:21:31;19.60;99.90
20827;DHT22;10574;52.508;13.236;2022-08-01T06:23:58;19.60;99.90
20827;DHT22;10574;52.508;13.236;2022-08-01T06:26:26;19.60;99.90
20827;DHT22;10574;52.508;13.236;2022-08-01T06:28:54;19.60;99.90
20827;DHT22;10574;52.508;13.236;2022-08-01T06:31:21;19.70;99.90
20827;DHT22;10574;52.508;13.236;2022-08-01T06:33:49;19.70;99.90
20827;DHT22;10574;52.508;13.236;2022-08-01T06:36:16;19.80;99.90
20827;DHT22;10574;52.508;13.236;2022-08-01T06:38:44;20.00;99.90
20827;DHT22;10574;52.508;13.236;2022-08-01T06:41:11;20.10;99.90
20827;DHT22;10574;52.508;13.236;2022-08-01T06:43:39;20.10;99.90
20827;DHT22;10574;52.508;13.236;2022-08-01T06:46:07;20.10;99.90
20827;DHT22;10574;52.508;13.236;2022-08-01T06:48:34;20.00;99.90
20827;DHT22;10574;52.508;13.236;2022-08-01T06:51:03;20.00;99.90
20827;DHT22;10574;52.508;13.236;2022-08-01T06:53:35;20.00;99.90
20827;DHT22;10574;52.508;13.236;2022-08-01T06:56:04;20.10;99.90
20827;DHT22;10574;52.508;13.236;2022-08-01T06:58:32;20.00;99.90
20827;DHT22;10574;52.508;13.236;2022-08-01T07:01:02;20.10;99.90
20827;DHT22;10574;52.508;13.236;2022-08-01T07:03:33;20.20;99.90
20827;DHT22;10574;52.508;13.236;2022-08-01T07:06:01;20.30;99.90
20827;DHT22;10574;52.508;13.236;2022-08-01T07:08:28;20.30;99.90
20827;DHT22;10574;52.508;13.236;2022-08-01T07:10:56;20.20;99.90
20827;DHT22;10574;52.508;13.236;2022-08-01T07:13:26;20.10;99.90
20827;DHT22;10574;52.508;13.236;2022-08-01T07:15:54;20.20;99.90
20827;DHT22;10574;52.508;13.236;2022-08-01T07:18:22;20.30;99.90
20827;DHT22;10574;52.508;13.236;2022-08-01T07:20:50;20.50;99.90
20827;DHT22;10574;52.508;13.236;2022-08-01T07:23:17;20.60;99.90
20827;DHT22;10574;52.508;13.236;2022-08-01T07:25:45;20.70;99.90
20827;DHT22;10574;52.508;13.236;2022-08-01T07:28:15;20.90;99.90
20827;DHT22;10574;52.508;13.236;2022-08-01T07:30:42;21.00;99.90
20827;DHT22;10574;52.508;13.236;2022-08-01T07:33:11;21.00;99.90
20827;DHT22;10574;52.508;13.236;2022-08-01T07:35:39;20.80;99.90
20827;DHT22;10574;52.508;13.236;2022-08-01T07:38:07;20.90;99.90
20827;DHT22;10574;52.508;13.236;2022-08-01T07:40:35;20.90;99.90
20827;DHT22;10574;52.508;13.236;2022-08-01T07:43:03;20.90;99.90
20827;DHT22;10574;52.508;13.236;2022-08-01T07:45:31;20.90;99.90
20827;DHT22;10574;52.508;13.236;2022-08-01T07:48:06;20.90;99.90
20827;DHT22;10574;52.508;13.236;2022-08-01T07:50:34;21.00;99.90
20827;DHT22;10574;52.508;13.236;2022-08-01T07:53:02;21.00;99.90
20827;DHT22;10574;52.508;13.236;2022-08-01T07:55:30;21.00;99.90
20827;DHT22;10574;52.508;13.236;2022-08-01T07:57:57;20.90;99.90
20827;DHT22;10574;52.508;13.236;2022-08-01T08:00:25;20.90;99.90
20827;DHT22;10574;52.508;13.236;2022-08-01T08:02:54;20.80;99.90
20827;DHT22;10574;52.508;13.236;2022-08-01T08:05:23;20.70;99.90
20827;DHT22;10574;52.508;13.236;2022-08-01T08:07:50;20.70;99.90
20827;DHT22;10574;52.508;13.236;2022-08-01T08:10:23;20.80;99.90
20827;DHT22;10574;52.508;13.236;2022-08-01T08:12:52;20.90;99.90
20827;DHT22;10574;52.508;13.236;2022-08-01T08:15:23;20.80;99.90
20827;DHT22;10574;52.508;13.236;2022-08-01T08:17:55;20.80;99.90
20827;DHT22;10574;52.508;13.236;2022-08-01T08:20:27;20.90;99.90
20827;DHT22;10574;52.508;13.236;2022-08-01T08:22:56;21.00;99.90
20827;DHT22;10574;52.508;13.236;2022-08-01T08:25:26;21.20;99.90
20827;DHT22;10574;52.508;13.236;2022-08-01T08:27:55;21.40;99.90
20827;DHT22;10574;52.508;13.236;2022-08-01T08:30:23;21.50;99.90
20827;DHT22;10574;52.508;13.236;2022-08-01T08:32:51;21.40;99.90
20827;DHT22;10574;52.508;13.236;2022-08-01T08:35:18;21.40;99.90
20827;DHT22;10574;52.508;13.236;2022-08-01T08:37:46;21.50;99.90
20827;DHT22;10574;52.508;13.236;2022-08-01T08:40:14;21.50;99.90
20827;DHT22;10574;52.508;13.236;2022-08-01T08:42:43;21.60;99.90
20827;DHT22;10574;52.508;13.236;2022-08-01T08:45:12;21.60;99.90
20827;DHT22;10574;52.508;13.236;2022-08-01T08:47:42;21.90;99.90
20827;DHT22;10574;52.508;13.236;2022-08-01T08:50:12;22.10;99.90
20827;DHT22;10574;52.508;13.236;2022-08-01T08:52:42;22.20;99.90
20827;DHT22;10574;52.508;13.236;2022-08-01T08:55:16;22.20;99.90
20827;DHT22;10574;52.508;13.236;2022-08-01T08:57:52;22.20;99.90
20827;DHT22;10574;52.508;13.236;2022-08-01T09:00:28;22.00;99.90
20827;DHT22;10574;52.508;13.236;2022-08-01T09:02:57;21.90;99.90
20827;DHT22;10574;52.508;13.236;2022-08-01T09:05:26;22.00;99.90
20827;DHT22;10574;52.508;13.236;2022-08-01T09:07:54;21.90;99.90
20827;DHT22;10574;52.508;13.236;2022-08-01T09:10:21;21.90;99.90
20827;DHT22;10574;52.508;13.236;2022-08-01T09:13:07;21.80;99.90
20827;DHT22;10574;52.508;13.236;2022-08-01T09:15:48;21.70;99.90
20827;DHT22;10574;52.508;13.236;2022-08-01T09:18:35;21.70;99.90
20827;DHT22;10574;52.508;13.236;2022-08-01T09:21:12;21.70;99.90
20827;DHT22;10574;52.508;13.236;2022-08-01T09:23:43;21.70;99.90
20827;DHT22;10574;52.508;13.236;2022-08-01T09:26:20;21.70;99.90
20827;DHT22;10574;52.508;13.236;2022-08-01T09:28:48;21.80;99.90
20827;DHT22;10574;52.508;13.236;2022-08-01T09:31:17;21.90;99.90
20827;DHT22;10574;52.508;13.236;2022-08-01T09:33:59;22.00;99.90
20827;DHT22;10574;52.508;13.236;2022-08-01T09:36:53;21.90;99.90
20827;DHT22;10574;52.508;13.236;2022-08-01T09:39:29;21.80;99.90
20827;DHT22;10574;52.508;13.236;2022-08-01T09:42:01;21.70;99.90
20827;DHT22;10574;52.508;13.236;2022-08-01T09:44:41;21.60;99.90
20827;DHT22;10574;52.508;13.236;2022-08-01T09:47:12;21.70;99.90
20827;DHT22;10574;52.508;13.236;2022-08-01T09:49:44;21.80;99.90
20827;DHT22;10574;52.508;13.236;2022-08-01T09:52:17;21.70;99.90
20827;DHT22;10574;52.508;13.236;2022-08-01T09:55:02;21.60;99.90
20827;DHT22;10574;52.508;13.236;2022-08-01T09:57:31;21.80;99.90
20827;DHT22;10574;52.508;13.236;2022-08-01T10:00:00;21.90;99.90
20827;DHT22;10574;52.508;13.236;2022-08-01T10:02:31;22.00;99.90
20827;DHT22;10574;52.508;13.236;2022-08-01T10:05:00;21.90;99.90
20827;DHT22;10574;52.508;13.236;2022-08-01T10:07:28;22.00;99.90
20827;DHT22;10574;52.508;13.236;2022-08-01T10:10:14;21.90;99.90
20827;DHT22;10574;52.508;13.236;2022-08-01T10:12:43;21.70;99.90
20827;DHT22;10574;52.508;13.236;2022-08-01T10:15:12;21.50;99.90
20827;DHT22;10574;52.508;13.236;2022-08-01T10:17:57;21.60;99.90
20827;DHT22;10574;52.508;13.236;2022-08-01T10:20:24;21.70;99.90
20827;DHT22;10574;52.508;13.236;2022-08-01T10:22:55;21.70;99.90
20827;DHT22;10574;52.508;13.236;2022-08-01T10:25:23;21.80;99.90
20827;DHT22;10574;52.508;13.236;2022-08-01T10:27:52;22.00;99.90
20827;DHT22;10574;52.508;13.236;2022-08-01T10:30:23;22.10;99.90
20827;DHT22;10574;52.508;13.236;2022-08-01T10:32:51;22.20;99.90
20827;DHT22;10574;52.508;13.236;2022-08-01T10:35:19;22.10;99.90
20827;DHT22;10574;52.508;13.236;2022-08-01T10:37:47;22.20;99.90
20827;DHT22;10574;52.508;13.236;2022-08-01T10:40:17;22.20;99.90
20827;DHT22;10574;52.508;13.236;2022-08-01T10:42:47;22.20;99.90
20827;DHT22;10574;52.508;13.236;2022-08-01T10:45:15;22.20;99.90
20827;DHT22;10574;52.508;13.236;2022-08-01T10:47:47;22.20;99.90
20827;DHT22;10574;52.508;13.236;2022-08-01T10:50:24;22.00;99.90
20827;DHT22;10574;52.508;13.236;2022-08-01T10:53:20;21.90;99.90
20827;DHT22;10574;52.508;13.236;2022-08-01T10:56:02;21.80;99.90
20827;DHT22;10574;52.508;13.236;2022-08-01T10:58:37;21.90;99.90
20827;DHT22;10574;52.508;13.236;2022-08-01T11:01:26;22.00;99.90
20827;DHT22;10574;52.508;13.236;2022-08-01T11:06:39;22.40;99.90
20827;DHT22;10574;52.508;13.236;2022-08-01T11:12:02;22.30;99.90
20827;DHT22;10574;52.508;13.236;2022-08-01T11:14:32;22.10;99.90
20827;DHT22;10574;52.508;13.236;2022-08-01T11:17:34;22.00;99.90
20827;DHT22;10574;52.508;13.236;2022-08-01T11:20:11;21.90;99.90
20827;DHT22;10574;52.508;13.236;2022-08-01T11:31:24;21.50;99.90
20827;DHT22;10574;52.508;13.236;2022-08-01T11:41:30;21.50;99.90
20827;DHT22;10574;52.508;13.236;2022-08-01T11:44:04;21.70;99.90
20827;DHT22;10574;52.508;13.236;2022-08-01T11:46:51;21.80;99.90
20827;DHT22;10574;52.508;13.236;2022-08-01T11:52:01;21.90;99.90
20827;DHT22;10574;52.508;13.236;2022-08-01T11:54:37;21.90;99.90
20827;DHT22;10574;52.508;13.236;2022-08-01T11:57:26;22.00;99.90
20827;DHT22;10574;52.508;13.236;2022-08-01T11:59:57;22.10;99.90
20827;DHT22;10574;52.508;13.236;2022-08-01T12:02:27;22.20;99.90
20827;DHT22;10574;52.508;13.236;2022-08-01T12:04:58;22.30;99.90
20827;DHT22;10574;52.508;13.236;2022-08-01T12:07:29;22.20;99.90
20827;DHT22;10574;52.508;13.236;2022-08-01T12:09:59;22.20;99.90
20827;DHT22;10574;52.508;13.236;2022-08-01T12:12:28;22.20;99.90
20827;DHT22;10574;52.508;13.236;2022-08-01T12:14:58;22.30;99.90
20827;DHT22;10574;52.508;13.236;2022-08-01T12:17:41;22.40;99.90
20827;DHT22;10574;52.508;13.236;2022-08-01T12:20:00;22.70;99.90
20827;DHT22;10574;52.508;13.236;2022-08-01T12:22:30;22.90;99.90
20827;DHT22;10574;52.508;13.236;2022-08-01T12:25:12;23.10;99.90
20827;DHT22;10574;52.508;13.236;2022-08-01T12:27:43;23.10;99.90
20827;DHT22;10574;52.508;13.236;2022-08-01T12:30:20;23.20;99.90
20827;DHT22;10574;52.508;13.236;2022-08-01T12:32:45;23.30;99.90
20827;DHT22;10574;52.508;13.236;2022-08-01T12:35:16;23.50;99.90
20827;DHT22;10574;52.508;13.236;2022-08-01T12:37:46;23.70;99.90
20827;DHT22;10574;52.508;13.236;2022-08-01T12:40:23;23.60;99.90
20827;DHT22;10574;52.508;13.236;2022-08-01T12:42:49;23.60;99.90
20827;DHT22;10574;52.508;13.236;2022-08-01T12:45:24;23.60;99.90
20827;DHT22;10574;52.508;13.236;2022-08-01T12:47:52;23.70;99.90
20827;DHT22;10574;52.508;13.236;2022-08-01T12:50:22;23.90;99.90
20827;DHT22;10574;52.508;13.236;2022-08-01T12:52:50;23.90;99.90
20827;DHT22;10574;52.508;13.236;2022-08-01T12:55:19;24.00;99.90
20827;DHT22;10574;52.508;13.236;2022-08-01T12:57:49;23.90;99.90
20827;DHT22;10574;52.508;13.236;2022-08-01T13:00:22;23.90;99.90
20827;DHT22;10574;52.508;13.236;2022-08-01T13:03:04;23.90;99.90
20827;DHT22;10574;52.508;13.236;2022-08-01T13:05:53;23.80;99.90
20827;DHT22;10574;52.508;13.236;2022-08-01T13:08:30;23.50;99.90
20827;DHT22;10574;52.508;13.236;2022-08-01T13:11:02;23.50;99.90
20827;DHT22;10574;52.508;13.236;2022-08-01T13:13:43;23.60;99.90
20827;DHT22;10574;52.508;13.236;2022-08-01T13:16:09;23.60;99.90
20827;DHT22;10574;52.508;13.236;2022-08-01T13:18:37;23.60;99.90
20827;DHT22;10574;52.508;13.236;2022-08-01T13:21:16;23.50;99.90
20827;DHT22;10574;52.508;13.236;2022-08-01T13:26:46;23.70;99.90
20827;DHT22;10574;52.508;13.236;2022-08-01T13:29:16;24.00;99.90
20827;DHT22;10574;52.508;13.236;2022-08-01T13:31:45;24.40;99.90
20827;DHT22;10574;52.508;13.236;2022-08-01T13:34:13;24.70;99.90
20827;DHT22;10574;52.508;13.236;2022-08-01T13:36:41;25.00;99.90
20827;DHT22;10574;52.508;13.236;2022-08-01T13:39:09;25.40;99.90
20827;DHT22;10574;52.508;13.236;2022-08-01T13:41:55;25.50;99.90
20827;DHT22;10574;52.508;13.236;2022-08-01T13:44:23;25.30;99.90
20827;DHT22;10574;52.508;13.236;2022-08-01T13:46:50;25.00;99.90
20827;DHT22;10574;52.508;13.236;2022-08-01T13:49:18;25.10;99.90
20827;DHT22;10574;52.508;13.236;2022-08-01T13:51:46;25.30;99.90
20827;DHT22;10574;52.508;13.236;2022-08-01T13:54:16;25.60;99.90
20827;DHT22;10574;52.508;13.236;2022-08-01T13:56:44;26.00;99.90
20827;DHT22;10574;52.508;13.236;2022-08-01T13:59:12;25.60;99.90
20827;DHT22;10574;52.508;13.236;2022-08-01T14:01:40;25.50;99.90
20827;DHT22;10574;52.508;13.236;2022-08-01T14:04:08;25.20;99.90
20827;DHT22;10574;52.508;13.236;2022-08-01T14:06:36;24.80;99.90
20827;DHT22;10574;52.508;13.236;2022-08-01T14:09:05;24.50;99.90
20827;DHT22;10574;52.508;13.236;2022-08-01T14:11:33;24.20;99.90
20827;DHT22;10574;52.508;13.236;2022-08-01T14:14:00;24.10;99.90
20827;DHT22;10574;52.508;13.236;2022-08-01T14:16:28;24.10;99.90
20827;DHT22;10574;52.508;13.236;2022-08-01T14:18:56;24.30;99.90
20827;DHT22;10574;52.508;13.236;2022-08-01T14:21:25;24.30;99.90
20827;DHT22;10574;52.508;13.236;2022-08-01T14:23:57;24.40;99.90
20827;DHT22;10574;52.508;13.236;2022-08-01T14:26:29;24.60;99.90
20827;DHT22;10574;52.508;13.236;2022-08-01T14:28:58;24.90;99.90
20827;DHT22;10574;52.508;13.236;2022-08-01T14:31:26;25.30;99.90
20827;DHT22;10574;52.508;13.236;2022-08-01T14:33:55;25.60;99.90
20827;DHT22;10574;52.508;13.236;2022-08-01T14:36:23;25.90;99.90
20827;DHT22;10574;52.508;13.236;2022-08-01T14:38:51;26.20;99.90
20827;DHT22;10574;52.508;13.236;2022-08-01T14:41:18;26.20;99.90
20827;DHT22;10574;52.508;13.236;2022-08-01T14:43:46;26.00;99.90
20827;DHT22;10574;52.508;13.236;2022-08-01T14:46:13;26.10;99.90
20827;DHT22;10574;52.508;13.236;2022-08-01T14:48:41;26.20;99.90
20827;DHT22;10574;52.508;13.236;2022-08-01T14:51:09;26.00;99.90
20827;DHT22;10574;52.508;13.236;2022-08-01T14:53:37;25.60;99.90
20827;DHT22;10574;52.508;13.236;2022-08-01T14:56:06;25.30;99.90
20827;DHT22;10574;52.508;13.236;2022-08-01T14:58:35;25.00;99.90
20827;DHT22;10574;52.508;13.236;2022-08-01T15:01:02;24.40;99.90
20827;DHT22;10574;52.508;13.236;2022-08-01T15:03:32;23.90;99.90
20827;DHT22;10574;52.508;13.236;2022-08-01T15:06:00;23.90;99.90
20827;DHT22;10574;52.508;13.236;2022-08-01T15:08:28;23.90;99.90
20827;DHT22;10574;52.508;13.236;2022-08-01T15:10:56;24.00;99.90
20827;DHT22;10574;52.508;13.236;2022-08-01T15:13:24;23.90;99.90
20827;DHT22;10574;52.508;13.236;2022-08-01T15:15:52;24.00;99.90
20827;DHT22;10574;52.508;13.236;2022-08-01T15:18:21;24.00;99.90
20827;DHT22;10574;52.508;13.236;2022-08-01T15:20:49;23.90;99.90
20827;DHT22;10574;52.508;13.236;2022-08-01T15:23:16;23.90;99.90
20827;DHT22;10574;52.508;13.236;2022-08-01T15:25:44;23.90;99.90
20827;DHT22;10574;52.508;13.236;2022-08-01T15:28:13;24.00;99.90
20827;DHT22;10574;52.508;13.236;2022-08-01T15:30:41;23.90;99.90
20827;DHT22;10574;52.508;13.236;2022-08-01T15:33:10;24.00;99.90
20827;DHT22;10574;52.508;13.236;2022-08-01T15:35:37;24.00;99.90
20827;DHT22;10574;52.508;13.236;2022-08-01T15:38:05;24.00;99.90
20827;DHT22;10574;52.508;13.236;2022-08-01T15:40:33;24.30;99.90
20827;DHT22;10574;52.508;13.236;2022-08-01T15:43:01;24.60;99.90
20827;DHT22;10574;52.508;13.236;2022-08-01T15:45:29;24.70;99.90
20827;DHT22;10574;52.508;13.236;2022-08-01T15:47:56;24.80;99.90
20827;DHT22;10574;52.508;13.236;2022-08-01T15:50:25;25.00;99.90
20827;DHT22;10574;52.508;13.236;2022-08-01T15:52:53;25.10;99.90
20827;DHT22;10574;52.508;13.236;2022-08-01T15:55:21;25.10;99.90
20827;DHT22;10574;52.508;13.236;2022-08-01T15:57:49;25.10;99.90
20827;DHT22;10574;52.508;13.236;2022-08-01T16:00:16;25.10;99.90
20827;DHT22;10574;52.508;13.236;2022-08-01T16:02:44;24.90;99.90
20827;DHT22;10574;52.508;13.236;2022-08-01T16:05:11;24.50;99.90
20827;DHT22;10574;52.508;13.236;2022-08-01T16:07:39;24.40;99.90
20827;DHT22;10574;52.508;13.236;2022-08-01T16:10:07;24.40;99.90
20827;DHT22;10574;52.508;13.236;2022-08-01T16:12:35;24.30;99.90
20827;DHT22;10574;52.508;13.236;2022-08-01T16:15:03;24.20;99.90
20827;DHT22;10574;52.508;13.236;2022-08-01T16:17:31;24.20;99.90